createdAt,value
2016-05-11T00:00:30.918Z,1001.71
2016-05-11T00:01:30.905Z,1001.67
2016-05-11T00:02:30.892Z,1001.69
2016-05-11T00:03:30.879Z,1001.7
2016-05-11T00:04:30.866Z,1001.67
2016-05-11T00:05:30.853Z,1001.7
2016-05-11T00:06:30.841Z,1001.73
2016-05-11T00:07:30.827Z,1001.71
2016-05-11T00:08:30.815Z,1001.69
2016-05-11T00:09:30.802Z,1001.69
2016-05-11T00:10:30.804Z,1001.73
2016-05-11T00:11:30.792Z,1001.71
2016-05-11T00:12:30.778Z,1001.69
2016-05-11T00:13:30.765Z,1001.7
2016-05-11T00:14:30.753Z,1001.71
2016-05-11T00:15:30.740Z,1001.68
2016-05-11T00:16:30.727Z,1001.7
2016-05-11T00:17:30.713Z,1001.69
2016-05-11T00:18:30.701Z,1001.73
2016-05-11T00:19:30.688Z,1001.72
2016-05-11T00:20:30.674Z,1001.71
2016-05-11T00:21:30.677Z,1001.71
2016-05-11T00:22:30.665Z,1001.71
2016-05-11T00:23:30.651Z,1001.76
2016-05-11T00:24:30.640Z,1001.73
2016-05-11T00:25:30.626Z,1001.81
2016-05-11T00:26:30.613Z,1001.78
2016-05-11T00:27:30.601Z,1001.81
2016-05-11T00:28:30.587Z,1001.77
2016-05-11T00:29:30.574Z,1001.77
2016-05-11T00:30:30.561Z,1001.79
2016-05-11T00:31:30.564Z,1001.77
2016-05-11T00:32:30.536Z,1001.75
2016-05-11T00:33:30.523Z,1001.75
2016-05-11T00:34:30.525Z,1001.72
2016-05-11T00:35:30.512Z,1001.7
2016-05-11T00:36:30.500Z,1001.71
2016-05-11T00:37:30.486Z,1001.71
2016-05-11T00:38:30.473Z,1001.68
2016-05-11T00:39:30.461Z,1001.68
2016-05-11T00:40:30.447Z,1001.67
2016-05-11T00:41:30.435Z,1001.66
2016-05-11T00:42:30.437Z,1001.67
2016-05-11T00:43:30.409Z,1001.71
2016-05-11T00:44:30.396Z,1001.68
2016-05-11T00:45:30.399Z,1001.68
2016-05-11T00:46:30.386Z,1001.73
2016-05-11T00:47:30.372Z,1001.72
2016-05-11T00:48:30.360Z,1001.68
2016-05-11T00:49:30.347Z,1001.71
2016-05-11T00:50:30.334Z,1001.69
2016-05-11T00:51:30.321Z,1001.7
2016-05-11T00:52:30.307Z,1001.68
2016-05-11T00:53:30.295Z,1001.68
2016-05-11T00:54:30.282Z,1001.65
2016-05-11T00:55:30.285Z,1001.72
2016-05-11T00:56:30.256Z,1001.69
2016-05-11T00:57:30.243Z,1001.67
2016-05-11T00:58:30.246Z,1001.68
2016-05-11T00:59:30.233Z,1001.67
2016-05-11T01:00:30.220Z,1001.65
2016-05-11T01:01:30.206Z,1001.65
2016-05-11T01:02:30.194Z,1001.67
2016-05-11T01:03:30.181Z,1001.62
2016-05-11T01:04:30.168Z,1001.6
2016-05-11T01:05:30.156Z,1001.58
2016-05-11T01:06:30.142Z,1001.62
2016-05-11T01:07:30.130Z,1001.6
2016-05-11T01:08:30.116Z,1001.59
2016-05-11T01:09:30.103Z,1001.61
2016-05-11T01:10:30.091Z,1001.59
2016-05-11T01:11:30.094Z,1001.62
2016-05-11T01:12:30.081Z,1001.65
2016-05-11T01:13:30.067Z,1001.64
2016-05-11T01:14:30.055Z,1001.66
2016-05-11T01:15:30.494Z,1001.62
2016-05-11T01:16:30.030Z,1001.62
2016-05-11T01:17:30.015Z,1001.66
2016-05-11T01:18:30.002Z,1001.62
2016-05-11T01:19:29.990Z,1001.6
2016-05-11T01:20:29.977Z,1001.63
2016-05-11T01:21:29.964Z,1001.62
2016-05-11T01:22:29.966Z,1001.63
2016-05-11T01:23:29.954Z,1001.63
2016-05-11T01:24:29.940Z,1001.6
2016-05-11T01:25:29.929Z,1001.57
2016-05-11T01:26:29.915Z,1001.63
2016-05-11T01:27:29.902Z,1001.6
2016-05-11T01:28:29.890Z,1001.6
2016-05-11T01:29:29.876Z,1001.6
2016-05-11T01:30:29.862Z,1001.6
2016-05-11T01:31:29.850Z,1001.59
2016-05-11T01:32:29.838Z,1001.57
2016-05-11T01:33:29.825Z,1001.57
2016-05-11T01:34:29.828Z,1001.54
2016-05-11T01:35:29.798Z,1001.59
2016-05-11T01:36:29.801Z,1001.59
2016-05-11T01:37:29.788Z,1001.59
2016-05-11T01:38:29.776Z,1001.56
2016-05-11T01:39:29.762Z,1001.59
2016-05-11T01:40:29.749Z,1001.57
2016-05-11T01:41:29.737Z,1001.54
2016-05-11T01:42:29.724Z,1001.53
2016-05-11T01:43:29.711Z,1001.49
2016-05-11T01:44:29.698Z,1001.51
2016-05-11T01:45:29.685Z,1001.5
2016-05-11T01:46:29.671Z,1001.49
2016-05-11T01:47:29.674Z,1001.47
2016-05-11T01:48:29.647Z,1001.49
2016-05-11T01:49:29.649Z,1001.51
2016-05-11T01:50:29.636Z,1001.52
2016-05-11T01:51:29.623Z,1001.52
2016-05-11T01:52:29.610Z,1001.46
2016-05-11T01:53:29.597Z,1001.46
2016-05-11T01:54:29.584Z,1001.5
2016-05-11T01:55:29.571Z,1001.5
2016-05-11T01:56:29.558Z,1001.52
2016-05-11T01:57:29.561Z,1001.52
2016-05-11T01:58:29.532Z,1001.53
2016-05-11T01:59:29.520Z,1001.56
2016-05-11T02:00:29.522Z,1001.53
2016-05-11T02:01:29.509Z,1001.5
2016-05-11T02:02:29.495Z,1001.49
2016-05-11T02:03:29.484Z,1001.48
2016-05-11T02:04:29.471Z,1001.44
2016-05-11T02:05:29.457Z,1001.48
2016-05-11T02:06:29.444Z,1001.45
2016-05-11T02:07:29.431Z,1001.44
2016-05-11T02:08:29.419Z,1001.44
2016-05-11T02:09:29.405Z,1001.39
2016-05-11T02:10:29.392Z,1001.41
2016-05-11T02:11:29.380Z,1001.47
2016-05-11T02:12:29.383Z,1001.45
2016-05-11T02:13:29.369Z,1001.43
2016-05-11T02:14:29.356Z,1001.42
2016-05-11T02:15:29.656Z,1001.42
2016-05-11T02:16:29.331Z,1001.4
2016-05-11T02:17:29.318Z,1001.42
2016-05-11T02:18:29.305Z,1001.42
2016-05-11T02:19:29.292Z,1001.43
2016-05-11T02:20:29.279Z,1001.43
2016-05-11T02:21:29.266Z,1001.44
2016-05-11T02:22:29.253Z,1001.43
2016-05-11T02:23:29.240Z,1001.46
2016-05-11T02:24:29.227Z,1001.48
2016-05-11T02:25:29.276Z,1001.48
2016-05-11T02:26:29.201Z,1001.52
2016-05-11T02:27:29.204Z,1001.46
2016-05-11T02:28:29.191Z,1001.43
2016-05-11T02:29:29.178Z,1001.43
2016-05-11T02:30:29.165Z,1001.4
2016-05-11T02:31:29.152Z,1001.38
2016-05-11T02:32:29.140Z,1001.35
2016-05-11T02:33:29.267Z,1001.36
2016-05-11T02:34:29.114Z,1001.36
2016-05-11T02:35:29.100Z,1001.35
2016-05-11T02:36:29.087Z,1001.38
2016-05-11T02:37:29.090Z,1001.35
2016-05-11T02:38:29.062Z,1001.38
2016-05-11T02:39:29.065Z,1001.38
2016-05-11T02:40:29.051Z,1001.36
2016-05-11T02:41:29.289Z,1001.4
2016-05-11T02:42:29.025Z,1001.38
2016-05-11T02:43:29.013Z,1001.35
2016-05-11T02:44:28.999Z,1001.3
2016-05-11T02:45:28.987Z,1001.28
2016-05-11T02:46:28.974Z,1001.24
2016-05-11T02:47:28.961Z,1001.25
2016-05-11T02:48:28.948Z,1001.24
2016-05-11T02:49:29.294Z,1001.21
2016-05-11T02:50:28.922Z,1001.25
2016-05-11T02:51:28.910Z,1001.29
2016-05-11T02:52:28.912Z,1001.34
2016-05-11T02:53:28.899Z,1001.34
2016-05-11T02:54:28.886Z,1001.3
2016-05-11T02:55:28.873Z,1001.28
2016-05-11T02:56:28.860Z,1001.2
2016-05-11T02:57:29.300Z,1001.17
2016-05-11T02:58:28.835Z,1001.15
2016-05-11T02:59:28.822Z,1001.15
2016-05-11T03:00:29.090Z,1001.16
2016-05-11T03:01:28.795Z,1001.22
2016-05-11T03:02:28.782Z,1001.23
2016-05-11T03:03:28.769Z,1001.3
2016-05-11T03:04:28.772Z,1001.3
2016-05-11T03:05:29.416Z,1001.33
2016-05-11T03:06:28.746Z,1001.32
2016-05-11T03:07:28.734Z,1001.31
2016-05-11T03:08:28.720Z,1001.32
2016-05-11T03:09:28.708Z,1001.36
2016-05-11T03:10:28.694Z,1001.36
2016-05-11T03:11:28.681Z,1001.42
2016-05-11T03:12:28.669Z,1001.44
2016-05-11T03:13:29.312Z,1001.4
2016-05-11T03:14:28.642Z,1001.41
2016-05-11T03:15:28.630Z,1001.39
2016-05-11T03:16:28.633Z,1001.39
2016-05-11T03:17:28.620Z,1001.35
2016-05-11T03:18:28.607Z,1001.34
2016-05-11T03:19:28.594Z,1001.3
2016-05-11T03:20:28.578Z,1001.31
2016-05-11T03:21:28.615Z,1001.3
2016-05-11T03:22:28.552Z,1001.28
2016-05-11T03:23:28.539Z,1001.33
2016-05-11T03:24:28.526Z,1001.32
2016-05-11T03:25:28.514Z,1001.37
2016-05-11T03:26:28.501Z,1001.39
2016-05-11T03:27:28.519Z,1001.37
2016-05-11T03:28:28.475Z,1001.31
2016-05-11T03:29:29.417Z,1001.27
2016-05-11T03:30:28.448Z,1001.25
2016-05-11T03:31:28.458Z,1001.26
2016-05-11T03:32:28.484Z,1001.24
2016-05-11T03:33:28.511Z,1001.25
2016-05-11T03:34:28.538Z,1001.24
2016-05-11T03:35:28.565Z,1001.29
2016-05-11T03:36:28.587Z,1001.26
2016-05-11T03:37:28.838Z,1001.28
2016-05-11T03:38:28.590Z,1001.27
2016-05-11T03:39:28.591Z,1001.3
2016-05-11T03:40:28.592Z,1001.32
2016-05-11T03:41:28.592Z,1001.29
2016-05-11T03:42:28.600Z,1001.3
2016-05-11T03:43:28.576Z,1001.3
2016-05-11T03:44:28.584Z,1001.36
2016-05-11T03:45:28.920Z,1001.33
2016-05-11T03:46:28.567Z,1001.32
2016-05-11T03:47:28.557Z,1001.3
2016-05-11T03:48:28.545Z,1001.31
2016-05-11T03:49:28.533Z,1001.33
2016-05-11T03:50:28.523Z,1001.33
2016-05-11T03:51:28.512Z,1001.33
2016-05-11T03:52:28.499Z,1001.31
2016-05-11T03:53:28.940Z,1001.32
2016-05-11T03:54:28.490Z,1001.35
2016-05-11T03:55:28.462Z,1001.3
2016-05-11T03:56:28.449Z,1001.29
2016-05-11T03:57:28.452Z,1001.34
2016-05-11T03:58:28.439Z,1001.32
2016-05-11T03:59:28.427Z,1001.32
2016-05-11T04:00:28.414Z,1001.32
2016-05-11T04:01:28.403Z,1001.33
2016-05-11T04:02:28.389Z,1001.35
2016-05-11T04:03:28.376Z,1001.34
2016-05-11T04:04:28.364Z,1001.38
2016-05-11T04:05:28.350Z,1001.34
2016-05-11T04:06:28.336Z,1001.36
2016-05-11T04:07:28.339Z,1001.34
2016-05-11T04:08:28.312Z,1001.37
2016-05-11T04:09:28.314Z,1001.29
2016-05-11T04:10:28.286Z,1001.35
2016-05-11T04:11:28.288Z,1001.35
2016-05-11T04:12:28.274Z,1001.37
2016-05-11T04:13:28.262Z,1001.39
2016-05-11T04:14:28.250Z,1001.37
2016-05-11T04:15:28.236Z,1001.35
2016-05-11T04:16:28.224Z,1001.36
2016-05-11T04:17:28.210Z,1001.39
2016-05-11T04:18:28.198Z,1001.37
2016-05-11T04:19:28.201Z,1001.33
2016-05-11T04:20:28.171Z,1001.34
2016-05-11T04:21:28.159Z,1001.36
2016-05-11T04:22:28.162Z,1001.35
2016-05-11T04:23:28.132Z,1001.3
2016-05-11T04:24:28.135Z,1001.37
2016-05-11T04:25:28.123Z,1001.4
2016-05-11T04:26:28.110Z,1001.34
2016-05-11T04:27:28.098Z,1001.37
2016-05-11T04:28:28.084Z,1001.36
2016-05-11T04:29:28.071Z,1001.39
2016-05-11T04:30:28.058Z,1001.4
2016-05-11T04:31:28.045Z,1001.36
2016-05-11T04:32:28.031Z,1001.34
2016-05-11T04:33:28.020Z,1001.33
2016-05-11T04:34:28.006Z,1001.34
2016-05-11T04:35:27.993Z,1001.28
2016-05-11T04:36:27.996Z,1001.31
2016-05-11T04:37:27.983Z,1001.33
2016-05-11T04:38:27.969Z,1001.32
2016-05-11T04:39:27.958Z,1001.36
2016-05-11T04:40:27.944Z,1001.33
2016-05-11T04:41:27.931Z,1001.37
2016-05-11T04:42:27.919Z,1001.3
2016-05-11T04:43:27.905Z,1001.32
2016-05-11T04:44:27.893Z,1001.31
2016-05-11T04:45:27.880Z,1001.31
2016-05-11T04:46:27.866Z,1001.26
2016-05-11T04:47:27.854Z,1001.23
2016-05-11T04:48:27.841Z,1001.27
2016-05-11T04:49:27.827Z,1001.26
2016-05-11T04:50:27.815Z,1001.28
2016-05-11T04:51:27.818Z,1001.32
2016-05-11T04:52:27.804Z,1001.31
2016-05-11T04:53:27.792Z,1001.34
2016-05-11T04:54:27.779Z,1001.33
2016-05-11T04:55:27.765Z,1001.32
2016-05-11T04:56:27.754Z,1001.37
2016-05-11T04:57:27.739Z,1001.38
2016-05-11T04:58:27.727Z,1001.34
2016-05-11T04:59:27.714Z,1001.35
2016-05-11T05:00:27.701Z,1001.34
2016-05-11T05:01:27.688Z,1001.33
2016-05-11T05:02:27.692Z,1001.3
2016-05-11T05:03:27.662Z,1001.29
2016-05-11T05:04:27.665Z,1001.27
2016-05-11T05:05:27.653Z,1001.25
2016-05-11T05:06:27.623Z,1001.26
2016-05-11T05:07:27.626Z,1001.26
2016-05-11T05:08:27.613Z,1001.27
2016-05-11T05:09:27.600Z,1001.26
2016-05-11T05:10:27.588Z,1001.28
2016-05-11T05:11:27.591Z,1001.25
2016-05-11T05:12:27.561Z,1001.23
2016-05-11T05:13:27.549Z,1001.2
2016-05-11T05:14:27.536Z,1001.19
2016-05-11T05:15:27.538Z,1001.17
2016-05-11T05:16:27.510Z,1001.09
2016-05-11T05:17:27.513Z,1001.11
2016-05-11T05:18:27.499Z,1001.15
2016-05-11T05:19:27.471Z,1001.16
2016-05-11T05:20:27.474Z,1001.16
2016-05-11T05:21:27.460Z,1001.15
2016-05-11T05:22:27.448Z,1001.15
2016-05-11T05:23:27.435Z,1001.16
2016-05-11T05:24:27.421Z,1001.14
2016-05-11T05:25:27.410Z,1001.16
2016-05-11T05:26:27.395Z,1001.16
2016-05-11T05:27:27.384Z,1001.19
2016-05-11T05:28:27.370Z,1001.2
2016-05-11T05:29:27.373Z,1001.16
2016-05-11T05:30:27.344Z,1001.2
2016-05-11T05:31:27.348Z,1001.22
2016-05-11T05:32:27.318Z,1001.22
2016-05-11T05:33:27.321Z,1001.16
2016-05-11T05:34:27.309Z,1001.19
2016-05-11T05:35:27.295Z,1001.17
2016-05-11T05:36:27.298Z,1001.19
2016-05-11T05:37:27.269Z,1001.2
2016-05-11T05:38:27.256Z,1001.23
2016-05-11T05:39:27.244Z,1001.17
2016-05-11T05:40:27.231Z,1001.19
2016-05-11T05:41:27.217Z,1001.19
2016-05-11T05:42:27.220Z,1001.16
2016-05-11T05:43:27.192Z,1001.15
2016-05-11T05:44:27.179Z,1001.14
2016-05-11T05:45:27.166Z,1001.1
2016-05-11T05:46:27.153Z,1001.1
2016-05-11T05:47:27.155Z,1001.1
2016-05-11T05:48:27.143Z,1001.1
2016-05-11T05:49:27.130Z,1001.1
2016-05-11T05:50:27.117Z,1001.08
2016-05-11T05:51:27.104Z,1001.11
2016-05-11T05:52:27.091Z,1001.08
2016-05-11T05:53:27.078Z,1001.05
2016-05-11T05:54:27.065Z,1001.09
2016-05-11T05:55:27.052Z,1001.06
2016-05-11T05:56:27.039Z,1001.08
2016-05-11T05:57:27.026Z,1001.04
2016-05-11T05:58:27.013Z,1001.08
2016-05-11T05:59:27.000Z,1001.11
2016-05-11T06:00:26.987Z,1001.06
2016-05-11T06:01:26.990Z,1001.08
2016-05-11T06:02:26.977Z,1001.09
2016-05-11T06:03:26.965Z,1001.08
2016-05-11T06:04:26.951Z,1001.06
2016-05-11T06:05:26.939Z,1001.12
2016-05-11T06:06:26.925Z,1001.07
2016-05-11T06:07:26.912Z,1001.07
2016-05-11T06:08:26.900Z,1001.09
2016-05-11T06:09:26.886Z,1001.13
2016-05-11T06:10:26.875Z,1001.05
2016-05-11T06:11:26.861Z,1001.07
2016-05-11T06:12:26.847Z,1001.05
2016-05-11T06:13:26.851Z,1001.05
2016-05-11T06:14:26.822Z,1000.99
2016-05-11T06:15:27.169Z,1001
2016-05-11T06:16:26.858Z,1001
2016-05-11T06:17:26.799Z,1000.98
2016-05-11T06:18:26.864Z,1000.99
2016-05-11T06:19:31.241Z,1000.98
2016-05-11T06:20:29.386Z,1001.02
2016-05-11T06:21:27.840Z,1001.02
2016-05-11T06:22:26.749Z,1001.05
2016-05-11T06:23:26.738Z,1001.06
2016-05-11T06:24:31.677Z,1001.06
2016-05-11T06:25:28.929Z,1001.08
2016-05-11T06:26:26.838Z,1001.08
2016-05-11T06:27:26.670Z,1001.09
2016-05-11T06:28:26.673Z,1001.09
2016-05-11T06:29:26.644Z,1001.12
2016-05-11T06:30:26.631Z,1001.06
2016-05-11T06:31:26.634Z,1001.1
2016-05-11T06:32:26.964Z,1001.08
2016-05-11T06:33:26.608Z,1001.08
2016-05-11T06:34:26.595Z,1001.14
2016-05-11T06:35:26.582Z,1001.08
2016-05-11T06:36:26.570Z,1001.08
2016-05-11T06:37:26.556Z,1001.1
2016-05-11T06:38:26.543Z,1001.09
2016-05-11T06:39:26.530Z,1001.12
2016-05-11T06:40:26.970Z,1001.16
2016-05-11T06:41:26.504Z,1001.17
2016-05-11T06:42:26.491Z,1001.13
2016-05-11T06:43:26.478Z,1001.16
2016-05-11T06:44:26.480Z,1001.16
2016-05-11T06:45:26.452Z,1001.15
2016-05-11T06:46:26.440Z,1001.15
2016-05-11T06:47:26.442Z,1001.2
2016-05-11T06:48:26.820Z,1001.19
2016-05-11T06:49:26.416Z,1001.17
2016-05-11T06:50:26.403Z,1001.17
2016-05-11T06:51:26.391Z,1001.19
2016-05-11T06:52:26.377Z,1001.26
2016-05-11T06:53:26.365Z,1001.21
2016-05-11T06:54:26.352Z,1001.25
2016-05-11T06:55:26.338Z,1001.23
2016-05-11T06:56:26.826Z,1001.25
2016-05-11T06:57:26.313Z,1001.25
2016-05-11T06:58:26.315Z,1001.27
2016-05-11T06:59:26.302Z,1001.29
2016-05-11T07:00:26.290Z,1001.31
2016-05-11T07:01:26.277Z,1001.29
2016-05-11T07:02:26.265Z,1001.32
2016-05-11T07:03:26.266Z,1001.33
2016-05-11T07:04:26.895Z,1001.33
2016-05-11T07:05:26.226Z,1001.35
2016-05-11T07:06:26.212Z,1001.31
2016-05-11T07:07:26.215Z,1001.37
2016-05-11T07:08:26.186Z,1001.35
2016-05-11T07:09:26.173Z,1001.33
2016-05-11T07:10:26.161Z,1001.37
2016-05-11T07:11:26.163Z,1001.33
2016-05-11T07:12:26.994Z,1001.36
2016-05-11T07:13:26.136Z,1001.36
2016-05-11T07:14:26.125Z,1001.34
2016-05-11T07:15:26.611Z,1001.35
2016-05-11T07:16:26.098Z,1001.32
2016-05-11T07:17:26.085Z,1001.33
2016-05-11T07:18:26.072Z,1001.33
2016-05-11T07:19:26.060Z,1001.34
2016-05-11T07:20:26.140Z,1001.34
2016-05-11T07:21:26.049Z,1001.35
2016-05-11T07:22:26.021Z,1001.34
2016-05-11T07:23:26.007Z,1001.34
2016-05-11T07:24:25.994Z,1001.31
2016-05-11T07:25:25.982Z,1001.33
2016-05-11T07:26:25.984Z,1001.29
2016-05-11T07:27:25.972Z,1001.31
2016-05-11T07:28:26.210Z,1001.27
2016-05-11T07:29:25.946Z,1001.31
2016-05-11T07:30:25.932Z,1001.26
2016-05-11T07:31:25.920Z,1001.3
2016-05-11T07:32:25.907Z,1001.27
2016-05-11T07:33:25.893Z,1001.24
2016-05-11T07:34:25.881Z,1001.24
2016-05-11T07:35:25.868Z,1001.21
2016-05-11T07:36:27.059Z,1001.24
2016-05-11T07:37:25.842Z,1001.22
2016-05-11T07:38:25.829Z,1001.22
2016-05-11T07:39:25.832Z,1001.21
2016-05-11T07:40:25.820Z,1001.19
2016-05-11T07:41:25.806Z,1001.18
2016-05-11T07:42:25.793Z,1001.2
2016-05-11T07:43:25.781Z,1001.2
2016-05-11T07:44:26.158Z,1001.22
2016-05-11T07:45:25.755Z,1001.22
2016-05-11T07:46:25.742Z,1001.16
2016-05-11T07:47:25.729Z,1001.17
2016-05-11T07:48:25.716Z,1001.21
2016-05-11T07:49:25.719Z,1001.19
2016-05-11T07:50:25.689Z,1001.21
2016-05-11T07:51:25.677Z,1001.18
2016-05-11T07:52:25.679Z,1001.21
2016-05-11T07:53:25.666Z,1001.16
2016-05-11T07:54:25.655Z,1001.2
2016-05-11T07:55:25.641Z,1001.17
2016-05-11T07:56:25.628Z,1001.2
2016-05-11T07:57:25.615Z,1001.21
2016-05-11T07:58:25.601Z,1001.2
2016-05-11T07:59:25.589Z,1001.18
2016-05-11T08:00:25.577Z,1001.21
2016-05-11T08:01:25.563Z,1001.17
2016-05-11T08:02:25.551Z,1001.19
2016-05-11T08:03:25.553Z,1001.17
2016-05-11T08:04:25.524Z,1001.17
2016-05-11T08:05:25.527Z,1001.15
2016-05-11T08:06:25.515Z,1001.18
2016-05-11T08:07:25.501Z,1001.17
2016-05-11T08:08:25.488Z,1001.16
2016-05-11T08:09:25.475Z,1001.15
2016-05-11T08:10:25.462Z,1001.14
2016-05-11T08:11:25.450Z,1001.12
2016-05-11T08:12:25.437Z,1001.14
2016-05-11T08:13:25.423Z,1001.14
2016-05-11T08:14:25.411Z,1001.17
2016-05-11T08:15:25.570Z,1001.17
2016-05-11T08:16:25.400Z,1001.21
2016-05-11T08:17:25.372Z,1001.18
2016-05-11T08:18:25.375Z,1001.22
2016-05-11T08:19:25.377Z,1001.22
2016-05-11T08:20:25.349Z,1001.23
2016-05-11T08:21:25.336Z,1001.22
2016-05-11T08:22:25.322Z,1001.22
2016-05-11T08:23:25.325Z,1001.22
2016-05-11T08:24:25.297Z,1001.27
2016-05-11T08:25:25.284Z,1001.23
2016-05-11T08:26:25.271Z,1001.25
2016-05-11T08:27:25.274Z,1001.23
2016-05-11T08:28:25.261Z,1001.16
2016-05-11T08:29:25.248Z,1001.19
2016-05-11T08:30:25.391Z,1001.2
2016-05-11T08:31:25.222Z,1001.14
2016-05-11T08:32:25.209Z,1001.17
2016-05-11T08:33:25.196Z,1001.21
2016-05-11T08:34:25.183Z,1001.19
2016-05-11T08:35:25.170Z,1001.18
2016-05-11T08:36:25.157Z,1001.2
2016-05-11T08:37:25.160Z,1001.17
2016-05-11T08:38:25.131Z,1001.15
2016-05-11T08:39:25.134Z,1001.18
2016-05-11T08:40:25.121Z,1001.18
2016-05-11T08:41:25.109Z,1001.15
2016-05-11T08:42:25.095Z,1001.14
2016-05-11T08:43:25.082Z,1001.11
2016-05-11T08:44:25.070Z,1001.12
2016-05-11T08:45:25.056Z,1001.1
2016-05-11T08:46:25.044Z,1001.04
2016-05-11T08:47:25.031Z,1001.04
2016-05-11T08:48:25.017Z,1000.99
2016-05-11T08:49:25.006Z,1000.96
2016-05-11T08:50:25.008Z,1000.99
2016-05-11T08:51:25.010Z,1000.97
2016-05-11T08:52:24.981Z,1000.93
2016-05-11T08:53:24.969Z,1000.97
2016-05-11T08:54:24.955Z,1000.94
2016-05-11T08:55:24.943Z,1000.92
2016-05-11T08:56:24.930Z,1000.94
2016-05-11T08:57:24.917Z,1000.89
2016-05-11T08:58:24.904Z,1000.9
2016-05-11T08:59:24.891Z,1000.89
2016-05-11T09:00:24.894Z,1000.92
2016-05-11T09:01:24.865Z,1000.9
2016-05-11T09:02:24.852Z,1000.92
2016-05-11T09:03:24.855Z,1000.89
2016-05-11T09:04:24.843Z,1000.87
2016-05-11T09:05:24.829Z,1000.84
2016-05-11T09:06:24.815Z,1000.84
2016-05-11T09:07:24.804Z,1000.85
2016-05-11T09:08:24.790Z,1000.83
2016-05-11T09:09:24.776Z,1000.78
2016-05-11T09:10:24.780Z,1000.76
2016-05-11T09:11:24.751Z,1000.71
2016-05-11T09:12:24.754Z,1000.73
2016-05-11T09:13:24.726Z,1000.74
2016-05-11T09:14:24.728Z,1000.72
2016-05-11T09:15:24.715Z,1000.68
2016-05-11T09:16:24.702Z,1000.74
2016-05-11T09:17:24.689Z,1000.67
2016-05-11T09:18:24.676Z,1000.71
2016-05-11T09:19:24.663Z,1000.71
2016-05-11T09:20:24.667Z,1000.74
2016-05-11T09:21:24.638Z,1000.71
2016-05-11T09:22:24.625Z,1000.67
2016-05-11T09:23:24.612Z,1000.69
2016-05-11T09:24:24.599Z,1000.67
2016-05-11T09:25:24.602Z,1000.7
2016-05-11T09:26:24.589Z,1000.67
2016-05-11T09:27:24.575Z,1000.71
2016-05-11T09:28:24.563Z,1000.67
2016-05-11T09:29:24.566Z,1000.66
2016-05-11T09:30:24.693Z,1000.61
2016-05-11T09:31:24.524Z,1000.59
2016-05-11T09:32:24.511Z,1000.6
2016-05-11T09:33:24.498Z,1000.57
2016-05-11T09:34:24.501Z,1000.52
2016-05-11T09:35:24.488Z,1000.53
2016-05-11T09:36:24.474Z,1000.47
2016-05-11T09:37:24.462Z,1000.49
2016-05-11T09:38:24.448Z,1000.47
2016-05-11T09:39:24.437Z,1000.44
2016-05-11T09:40:24.424Z,1000.43
2016-05-11T09:41:24.426Z,1000.47
2016-05-11T09:42:24.398Z,1000.52
2016-05-11T09:43:24.384Z,1000.41
2016-05-11T09:44:24.371Z,1000.42
2016-05-11T09:45:24.373Z,1000.38
2016-05-11T09:46:24.361Z,1000.42
2016-05-11T09:47:24.348Z,1000.48
2016-05-11T09:48:24.336Z,1000.45
2016-05-11T09:49:24.322Z,1000.37
2016-05-11T09:50:24.309Z,1000.36
2016-05-11T09:51:24.297Z,1000.37
2016-05-11T09:52:24.284Z,1000.42
2016-05-11T09:53:24.286Z,1000.35
2016-05-11T09:54:24.258Z,1000.31
2016-05-11T09:55:24.260Z,1000.29
2016-05-11T09:56:24.232Z,1000.28
2016-05-11T09:57:24.250Z,1000.34
2016-05-11T09:58:24.222Z,1000.28
2016-05-11T09:59:24.208Z,1000.36
2016-05-11T10:00:24.196Z,1000.29
2016-05-11T10:01:24.182Z,1000.29
2016-05-11T10:02:24.169Z,1000.25
2016-05-11T10:03:24.157Z,1000.3
2016-05-11T10:04:24.143Z,1000.28
2016-05-11T10:05:24.132Z,1000.32
2016-05-11T10:06:24.134Z,1000.3
2016-05-11T10:07:24.121Z,1000.23
2016-05-11T10:08:24.108Z,1000.26
2016-05-11T10:09:24.095Z,1000.2
2016-05-11T10:10:24.082Z,1000.25
2016-05-11T10:11:24.069Z,1000.2
2016-05-11T10:12:24.056Z,1000.19
2016-05-11T10:13:24.043Z,1000.14
2016-05-11T10:14:24.031Z,1000.23
2016-05-11T10:15:24.158Z,1000.22
2016-05-11T10:16:24.004Z,1000.22
2016-05-11T10:17:24.007Z,1000.14
2016-05-11T10:18:23.994Z,1000.18
2016-05-11T10:19:23.982Z,1000.17
2016-05-11T10:20:23.968Z,1000.19
2016-05-11T10:21:23.956Z,1000.13
2016-05-11T10:22:23.942Z,1000.15
2016-05-11T10:23:23.929Z,1000.21
2016-05-11T10:24:23.917Z,1000.15
2016-05-11T10:25:23.903Z,1000.19
2016-05-11T10:26:23.906Z,1000.18
2016-05-11T10:27:23.894Z,1000.13
2016-05-11T10:28:23.880Z,1000.15
2016-05-11T10:29:23.867Z,1000.17
2016-05-11T10:30:23.855Z,1000.21
2016-05-11T10:32:43.486Z,1000.15
2016-05-11T10:32:56.175Z,1000.16
2016-05-11T10:33:56.163Z,1000.19
2016-05-11T10:34:56.149Z,1000.14
2016-05-11T10:35:56.137Z,1000.15
2016-05-11T10:36:56.123Z,1000.21
2016-05-11T10:37:56.111Z,1000.09
2016-05-11T10:38:56.113Z,1000.13
2016-05-11T10:39:56.101Z,1000.07
2016-05-11T10:40:56.085Z,1000.11
2016-05-11T10:41:56.072Z,1000.07
2016-05-11T10:42:56.060Z,1000.14
2016-05-11T10:43:56.046Z,1000.21
2016-05-11T10:44:56.032Z,1000.18
2016-05-11T10:45:56.663Z,1000.06
2016-05-11T10:46:56.007Z,1000.09
2016-05-11T10:47:55.994Z,1000.17
2016-05-11T10:48:56.875Z,1000.05
2016-05-11T10:49:55.984Z,1000.16
2016-05-11T10:50:55.971Z,1000.15
2016-05-11T10:51:55.958Z,1000.05
2016-05-11T10:52:55.945Z,1000.03
2016-05-11T10:53:57.326Z,1000.05
2016-05-11T10:54:55.920Z,1000.06
2016-05-11T10:55:55.906Z,1000.02
2016-05-11T10:56:55.894Z,1000.07
2016-05-11T10:57:55.880Z,1000.07
2016-05-11T10:58:55.867Z,1000.04
2016-05-11T10:59:55.870Z,1000.06
2016-05-11T11:00:56.436Z,1000.04
2016-05-11T11:01:55.844Z,1000.03
2016-05-11T11:02:55.831Z,1000.01
2016-05-11T11:03:55.819Z,999.99
2016-05-11T11:04:55.806Z,999.88
2016-05-11T11:05:55.808Z,1000
2016-05-11T11:06:55.796Z,999.93
2016-05-11T11:07:55.783Z,999.91
2016-05-11T11:08:55.769Z,999.87
2016-05-11T11:09:55.757Z,999.94
2016-05-11T11:10:55.743Z,999.89
2016-05-11T11:11:55.731Z,1000.12
2016-05-11T11:12:55.718Z,999.97
2016-05-11T11:13:55.704Z,1000.14
2016-05-11T11:14:55.693Z,999.91
2016-05-11T11:15:55.695Z,999.91
2016-05-11T11:16:55.665Z,999.94
2016-05-11T11:17:55.653Z,999.95
2016-05-11T11:18:55.641Z,999.97
2016-05-11T11:19:55.643Z,999.9
2016-05-11T11:20:55.629Z,999.96
2016-05-11T11:21:55.618Z,1000.02
2016-05-11T11:22:55.604Z,999.91
2016-05-11T11:23:55.592Z,1000.03
2016-05-11T11:24:55.594Z,1000.01
2016-05-11T11:25:55.565Z,1000.04
2016-05-11T11:26:55.568Z,999.98
2016-05-11T11:27:55.555Z,999.91
2016-05-11T11:28:55.542Z,999.88
2016-05-11T11:29:55.529Z,1000.05
2016-05-11T11:30:55.516Z,999.97
2016-05-11T11:31:55.503Z,1000.1
2016-05-11T11:32:55.491Z,999.93
2016-05-11T11:33:55.478Z,999.94
2016-05-11T11:34:55.464Z,999.87
2016-05-11T11:35:55.452Z,999.9
2016-05-11T11:36:55.438Z,1000.07
2016-05-11T11:37:55.425Z,999.96
2016-05-11T11:38:55.413Z,999.89
2016-05-11T11:39:55.399Z,999.97
2016-05-11T11:40:55.402Z,999.86
2016-05-11T11:41:55.390Z,999.91
2016-05-11T11:42:55.377Z,999.88
2016-05-11T11:43:55.410Z,999.86
2016-05-11T11:44:55.351Z,999.95
2016-05-11T11:45:55.338Z,999.93
2016-05-11T11:46:55.325Z,999.87
2016-05-11T11:47:55.312Z,999.7
2016-05-11T11:48:55.315Z,999.96
2016-05-11T11:49:55.287Z,999.76
2016-05-11T11:50:55.289Z,999.88
2016-05-11T11:51:55.369Z,999.75
2016-05-11T11:52:55.263Z,999.75
2016-05-11T11:53:55.250Z,999.72
2016-05-11T11:54:55.237Z,999.7
2016-05-11T11:55:55.223Z,999.65
2016-05-11T11:56:55.212Z,999.67
2016-05-11T11:57:55.198Z,999.69
2016-05-11T11:58:55.185Z,999.73
2016-05-11T11:59:55.189Z,999.7
2016-05-11T12:00:55.160Z,999.79
2016-05-11T12:01:55.162Z,999.62
2016-05-11T12:02:55.149Z,999.72
2016-05-11T12:03:55.136Z,999.73
2016-05-11T12:04:55.123Z,999.69
2016-05-11T12:05:55.110Z,999.73
2016-05-11T12:06:55.097Z,999.71
2016-05-11T12:07:55.335Z,999.65
2016-05-11T12:08:55.088Z,999.97
2016-05-11T12:09:55.074Z,999.72
2016-05-11T12:10:55.061Z,999.64